sensor_id;sensor_type;location;lat;lon;timestamp;temperature;humidity
17348;DHT22;8791;50.876;4.342;2022-12-18T00:00:44;-2.50;99.90
17348;DHT22;8791;50.876;4.342;2022-12-18T00:03:12;-2.50;99.90
17348;DHT22;8791;50.876;4.342;2022-12-18T00:05:46;-2.50;99.90
17348;DHT22;8791;50.876;4.342;2022-12-18T00:08:13;-2.40;99.90
17348;DHT22;8791;50.876;4.342;2022-12-18T00:10:39;-2.40;99.90
17348;DHT22;8791;50.876;4.342;2022-12-18T00:13:06;-2.40;99.90
17348;DHT22;8791;50.876;4.342;2022-12-18T00:15:34;-2.40;99.90
17348;DHT22;8791;50.876;4.342;2022-12-18T00:18:01;-2.30;99.90
17348;DHT22;8791;50.876;4.342;2022-12-18T00:20:28;-2.30;99.90
17348;DHT22;8791;50.876;4.342;2022-12-18T00:22:56;-2.30;99.90
17348;DHT22;8791;50.876;4.342;2022-12-18T00:25:23;-2.40;99.90
17348;DHT22;8791;50.876;4.342;2022-12-18T00:27:49;-2.40;99.90
17348;DHT22;8791;50.876;4.342;2022-12-18T00:30:16;-2.40;99.90
17348;DHT22;8791;50.876;4.342;2022-12-18T00:32:44;-2.50;99.90
17348;DHT22;8791;50.876;4.342;2022-12-18T00:35:11;-2.50;99.90
17348;DHT22;8791;50.876;4.342;2022-12-18T00:37:38;-2.50;99.90
17348;DHT22;8791;50.876;4.342;2022-12-18T00:40:06;-2.50;99.90
17348;DHT22;8791;50.876;4.342;2022-12-18T00:42:33;-2.60;99.90
17348;DHT22;8791;50.876;4.342;2022-12-18T00:45:17;-2.60;99.90
17348;DHT22;8791;50.876;4.342;2022-12-18T00:47:45;-2.50;99.90
17348;DHT22;8791;50.876;4.342;2022-12-18T00:50:12;-2.40;99.90
17348;DHT22;8791;50.876;4.342;2022-12-18T00:52:39;-2.50;99.90
17348;DHT22;8791;50.876;4.342;2022-12-18T00:55:06;-2.60;99.90
17348;DHT22;8791;50.876;4.342;2022-12-18T00:57:33;-2.60;99.90
17348;DHT22;8791;50.876;4.342;2022-12-18T01:00:00;-2.70;99.90
17348;DHT22;8791;50.876;4.342;2022-12-18T01:02:27;-2.70;99.90
17348;DHT22;8791;50.876;4.342;2022-12-18T01:04:55;-2.60;99.90
17348;DHT22;8791;50.876;4.342;2022-12-18T01:07:22;-2.60;99.90
17348;DHT22;8791;50.876;4.342;2022-12-18T01:09:49;-2.60;99.90
17348;DHT22;8791;50.876;4.342;2022-12-18T01:12:16;-2.60;99.90
17348;DHT22;8791;50.876;4.342;2022-12-18T01:14:42;-2.50;99.90
17348;DHT22;8791;50.876;4.342;2022-12-18T01:17:09;-2.30;99.90
17348;DHT22;8791;50.876;4.342;2022-12-18T01:19:36;-2.10;99.90
17348;DHT22;8791;50.876;4.342;2022-12-18T01:22:04;-2.00;99.90
17348;DHT22;8791;50.876;4.342;2022-12-18T01:24:31;-2.10;99.90
17348;DHT22;8791;50.876;4.342;2022-12-18T01:26:58;-2.20;99.90
17348;DHT22;8791;50.876;4.342;2022-12-18T01:29:24;-2.40;99.90
17348;DHT22;8791;50.876;4.342;2022-12-18T01:31:54;-2.50;99.90
17348;DHT22;8791;50.876;4.342;2022-12-18T01:34:22;-2.40;99.90
17348;DHT22;8791;50.876;4.342;2022-12-18T01:36:48;-2.50;99.90
17348;DHT22;8791;50.876;4.342;2022-12-18T01:39:18;-2.60;99.90
17348;DHT22;8791;50.876;4.342;2022-12-18T01:41:46;-2.60;99.90
17348;DHT22;8791;50.876;4.342;2022-12-18T01:44:55;-2.50;99.90
17348;DHT22;8791;50.876;4.342;2022-12-18T01:47:25;-2.60;99.90
17348;DHT22;8791;50.876;4.342;2022-12-18T01:49:53;-2.80;99.90
17348;DHT22;8791;50.876;4.342;2022-12-18T01:52:21;-2.80;99.90
17348;DHT22;8791;50.876;4.342;2022-12-18T01:54:50;-2.80;99.90
17348;DHT22;8791;50.876;4.342;2022-12-18T01:57:17;-2.80;99.90
17348;DHT22;8791;50.876;4.342;2022-12-18T01:59:47;-2.80;99.90
17348;DHT22;8791;50.876;4.342;2022-12-18T02:02:16;-2.60;99.90
17348;DHT22;8791;50.876;4.342;2022-12-18T02:04:44;-2.60;99.90
17348;DHT22;8791;50.876;4.342;2022-12-18T02:07:16;-2.60;99.90
17348;DHT22;8791;50.876;4.342;2022-12-18T02:09:50;-2.60;99.90
17348;DHT22;8791;50.876;4.342;2022-12-18T02:12:22;-2.70;99.90
17348;DHT22;8791;50.876;4.342;2022-12-18T02:14:58;-2.70;99.90
17348;DHT22;8791;50.876;4.342;2022-12-18T02:17:33;-2.60;99.90
17348;DHT22;8791;50.876;4.342;2022-12-18T02:20:12;-2.70;99.90
17348;DHT22;8791;50.876;4.342;2022-12-18T02:22:46;-2.50;99.90
17348;DHT22;8791;50.876;4.342;2022-12-18T02:25:31;-2.40;99.90
17348;DHT22;8791;50.876;4.342;2022-12-18T02:28:04;-2.50;99.90
17348;DHT22;8791;50.876;4.342;2022-12-18T02:30:33;-2.60;99.90
17348;DHT22;8791;50.876;4.342;2022-12-18T02:33:04;-2.80;99.90
17348;DHT22;8791;50.876;4.342;2022-12-18T02:35:33;-2.70;99.90
17348;DHT22;8791;50.876;4.342;2022-12-18T02:38:02;-2.80;99.90
17348;DHT22;8791;50.876;4.342;2022-12-18T02:40:30;-2.90;99.90
17348;DHT22;8791;50.876;4.342;2022-12-18T02:43:07;-3.00;99.90
17348;DHT22;8791;50.876;4.342;2022-12-18T02:45:34;-3.20;99.90
17348;DHT22;8791;50.876;4.342;2022-12-18T02:48:01;-3.20;99.90
17348;DHT22;8791;50.876;4.342;2022-12-18T02:50:34;-3.10;99.90
17348;DHT22;8791;50.876;4.342;2022-12-18T02:53:10;-3.20;99.90
17348;DHT22;8791;50.876;4.342;2022-12-18T02:55:50;-3.10;99.90
17348;DHT22;8791;50.876;4.342;2022-12-18T02:58:27;-3.00;99.90
17348;DHT22;8791;50.876;4.342;2022-12-18T03:00:59;-3.10;99.90
17348;DHT22;8791;50.876;4.342;2022-12-18T03:03:31;-3.10;99.90
17348;DHT22;8791;50.876;4.342;2022-12-18T03:06:03;-3.10;99.90
17348;DHT22;8791;50.876;4.342;2022-12-18T03:08:34;-3.20;99.90
17348;DHT22;8791;50.876;4.342;2022-12-18T03:11:04;-3.30;99.90
17348;DHT22;8791;50.876;4.342;2022-12-18T03:13:36;-3.40;99.90
17348;DHT22;8791;50.876;4.342;2022-12-18T03:16:06;-3.30;99.90
17348;DHT22;8791;50.876;4.342;2022-12-18T03:18:36;-3.30;99.90
17348;DHT22;8791;50.876;4.342;2022-12-18T03:21:06;-3.30;99.90
17348;DHT22;8791;50.876;4.342;2022-12-18T03:23:35;-3.30;99.90
17348;DHT22;8791;50.876;4.342;2022-12-18T03:26:07;-3.30;99.90
17348;DHT22;8791;50.876;4.342;2022-12-18T03:28:40;-3.30;99.90
17348;DHT22;8791;50.876;4.342;2022-12-18T03:31:10;-3.30;99.90
17348;DHT22;8791;50.876;4.342;2022-12-18T03:33:42;-3.30;99.90
17348;DHT22;8791;50.876;4.342;2022-12-18T03:36:11;-3.30;99.90
17348;DHT22;8791;50.876;4.342;2022-12-18T03:38:38;-3.30;99.90
17348;DHT22;8791;50.876;4.342;2022-12-18T03:41:09;-3.10;99.90
17348;DHT22;8791;50.876;4.342;2022-12-18T03:43:46;-3.00;99.90
17348;DHT22;8791;50.876;4.342;2022-12-18T03:46:20;-3.20;99.90
17348;DHT22;8791;50.876;4.342;2022-12-18T03:48:52;-3.20;99.90
17348;DHT22;8791;50.876;4.342;2022-12-18T03:51:26;-3.20;99.90
17348;DHT22;8791;50.876;4.342;2022-12-18T03:53:57;-3.30;99.90
17348;DHT22;8791;50.876;4.342;2022-12-18T03:56:26;-3.30;99.90
17348;DHT22;8791;50.876;4.342;2022-12-18T03:58:57;-3.20;99.90
17348;DHT22;8791;50.876;4.342;2022-12-18T04:01:30;-3.20;99.90
17348;DHT22;8791;50.876;4.342;2022-12-18T04:04:00;-3.30;99.90
17348;DHT22;8791;50.876;4.342;2022-12-18T04:06:27;-3.50;99.90
17348;DHT22;8791;50.876;4.342;2022-12-18T04:08:56;-3.50;99.90
17348;DHT22;8791;50.876;4.342;2022-12-18T04:11:23;-3.40;99.90
17348;DHT22;8791;50.876;4.342;2022-12-18T04:13:50;-3.40;99.90
17348;DHT22;8791;50.876;4.342;2022-12-18T04:16:23;-3.40;99.90
17348;DHT22;8791;50.876;4.342;2022-12-18T04:18:49;-3.50;99.90
17348;DHT22;8791;50.876;4.342;2022-12-18T04:21:16;-3.50;99.90
17348;DHT22;8791;50.876;4.342;2022-12-18T04:23:43;-3.40;99.90
17348;DHT22;8791;50.876;4.342;2022-12-18T04:26:10;-3.40;99.90
17348;DHT22;8791;50.876;4.342;2022-12-18T04:28:37;-3.40;99.90
17348;DHT22;8791;50.876;4.342;2022-12-18T04:31:04;-3.50;99.90
17348;DHT22;8791;50.876;4.342;2022-12-18T04:33:32;-3.50;99.90
17348;DHT22;8791;50.876;4.342;2022-12-18T04:35:59;-3.50;99.90
17348;DHT22;8791;50.876;4.342;2022-12-18T04:38:25;-3.40;99.90
17348;DHT22;8791;50.876;4.342;2022-12-18T04:40:52;-3.40;99.90
17348;DHT22;8791;50.876;4.342;2022-12-18T04:43:19;-3.50;99.90
17348;DHT22;8791;50.876;4.342;2022-12-18T04:45:46;-3.50;99.90
17348;DHT22;8791;50.876;4.342;2022-12-18T04:48:13;-3.50;99.90
17348;DHT22;8791;50.876;4.342;2022-12-18T04:50:41;-3.50;99.90
17348;DHT22;8791;50.876;4.342;2022-12-18T04:53:08;-3.60;99.90
17348;DHT22;8791;50.876;4.342;2022-12-18T04:55:35;-3.50;99.90
17348;DHT22;8791;50.876;4.342;2022-12-18T04:58:02;-3.50;99.90
17348;DHT22;8791;50.876;4.342;2022-12-18T05:00:28;-3.40;99.90
17348;DHT22;8791;50.876;4.342;2022-12-18T05:02:55;-3.20;99.90
17348;DHT22;8791;50.876;4.342;2022-12-18T05:05:22;-3.20;99.90
17348;DHT22;8791;50.876;4.342;2022-12-18T05:07:50;-3.40;99.90
17348;DHT22;8791;50.876;4.342;2022-12-18T05:10:17;-3.30;99.90
17348;DHT22;8791;50.876;4.342;2022-12-18T05:12:43;-3.30;99.90
17348;DHT22;8791;50.876;4.342;2022-12-18T05:15:26;-3.40;99.90
17348;DHT22;8791;50.876;4.342;2022-12-18T05:17:53;-3.40;99.90
17348;DHT22;8791;50.876;4.342;2022-12-18T05:20:19;-3.20;99.90
17348;DHT22;8791;50.876;4.342;2022-12-18T05:22:46;-3.20;99.90
17348;DHT22;8791;50.876;4.342;2022-12-18T05:25:14;-3.40;99.90
17348;DHT22;8791;50.876;4.342;2022-12-18T05:27:41;-3.40;99.90
17348;DHT22;8791;50.876;4.342;2022-12-18T05:30:09;-3.30;99.90
17348;DHT22;8791;50.876;4.342;2022-12-18T05:32:36;-3.30;99.90
17348;DHT22;8791;50.876;4.342;2022-12-18T05:35:05;-3.30;99.90
17348;DHT22;8791;50.876;4.342;2022-12-18T05:37:32;-3.40;99.90
17348;DHT22;8791;50.876;4.342;2022-12-18T05:39:59;-3.30;99.90
17348;DHT22;8791;50.876;4.342;2022-12-18T05:42:27;-3.40;99.90
17348;DHT22;8791;50.876;4.342;2022-12-18T05:44:54;-3.40;99.90
17348;DHT22;8791;50.876;4.342;2022-12-18T05:47:20;-3.40;99.90
17348;DHT22;8791;50.876;4.342;2022-12-18T05:49:47;-3.30;99.90
17348;DHT22;8791;50.876;4.342;2022-12-18T05:52:14;-3.30;99.90
17348;DHT22;8791;50.876;4.342;2022-12-18T05:54:41;-3.30;99.90
17348;DHT22;8791;50.876;4.342;2022-12-18T05:57:07;-3.30;99.90
17348;DHT22;8791;50.876;4.342;2022-12-18T05:59:36;-3.20;99.90
17348;DHT22;8791;50.876;4.342;2022-12-18T06:02:02;-3.40;99.90
17348;DHT22;8791;50.876;4.342;2022-12-18T06:04:29;-3.40;99.90
17348;DHT22;8791;50.876;4.342;2022-12-18T06:06:56;-3.40;99.90
17348;DHT22;8791;50.876;4.342;2022-12-18T06:09:23;-3.30;99.90
17348;DHT22;8791;50.876;4.342;2022-12-18T06:11:51;-3.10;99.90
17348;DHT22;8791;50.876;4.342;2022-12-18T06:14:18;-3.20;99.90
17348;DHT22;8791;50.876;4.342;2022-12-18T06:16:46;-3.10;99.90
17348;DHT22;8791;50.876;4.342;2022-12-18T06:19:15;-3.30;99.90
17348;DHT22;8791;50.876;4.342;2022-12-18T06:21:42;-3.50;99.90
17348;DHT22;8791;50.876;4.342;2022-12-18T06:24:09;-3.60;99.90
17348;DHT22;8791;50.876;4.342;2022-12-18T06:26:37;-3.60;99.90
17348;DHT22;8791;50.876;4.342;2022-12-18T06:29:05;-3.70;99.90
17348;DHT22;8791;50.876;4.342;2022-12-18T06:31:31;-3.70;99.90
17348;DHT22;8791;50.876;4.342;2022-12-18T06:34:02;-3.70;99.90
17348;DHT22;8791;50.876;4.342;2022-12-18T06:36:28;-3.60;99.90
17348;DHT22;8791;50.876;4.342;2022-12-18T06:38:56;-3.60;99.90
17348;DHT22;8791;50.876;4.342;2022-12-18T06:41:23;-3.50;99.90
17348;DHT22;8791;50.876;4.342;2022-12-18T06:43:50;-3.40;99.90
17348;DHT22;8791;50.876;4.342;2022-12-18T06:46:17;-3.30;99.90
17348;DHT22;8791;50.876;4.342;2022-12-18T06:48:47;-3.20;99.90
17348;DHT22;8791;50.876;4.342;2022-12-18T06:51:17;-3.30;99.90
17348;DHT22;8791;50.876;4.342;2022-12-18T06:53:44;-3.50;99.90
17348;DHT22;8791;50.876;4.342;2022-12-18T06:56:11;-3.50;99.90
17348;DHT22;8791;50.876;4.342;2022-12-18T06:58:38;-3.40;99.90
17348;DHT22;8791;50.876;4.342;2022-12-18T07:01:07;-3.40;99.90
17348;DHT22;8791;50.876;4.342;2022-12-18T07:03:34;-3.40;99.90
17348;DHT22;8791;50.876;4.342;2022-12-18T07:06:01;-3.40;99.90
17348;DHT22;8791;50.876;4.342;2022-12-18T07:08:30;-3.40;99.90
17348;DHT22;8791;50.876;4.342;2022-12-18T07:10:57;-3.50;99.90
17348;DHT22;8791;50.876;4.342;2022-12-18T07:13:24;-3.60;99.90
17348;DHT22;8791;50.876;4.342;2022-12-18T07:15:51;-3.60;99.90
17348;DHT22;8791;50.876;4.342;2022-12-18T07:18:18;-3.60;99.90
17348;DHT22;8791;50.876;4.342;2022-12-18T07:20:45;-3.60;99.90
17348;DHT22;8791;50.876;4.342;2022-12-18T07:23:11;-3.70;99.90
17348;DHT22;8791;50.876;4.342;2022-12-18T07:25:40;-3.60;99.90
17348;DHT22;8791;50.876;4.342;2022-12-18T07:28:06;-3.70;99.90
17348;DHT22;8791;50.876;4.342;2022-12-18T07:30:33;-3.70;99.90
17348;DHT22;8791;50.876;4.342;2022-12-18T07:33:03;-3.40;99.90
17348;DHT22;8791;50.876;4.342;2022-12-18T07:35:29;-3.60;99.90
17348;DHT22;8791;50.876;4.342;2022-12-18T07:37:56;-3.60;99.90
17348;DHT22;8791;50.876;4.342;2022-12-18T07:40:23;-3.60;99.90
17348;DHT22;8791;50.876;4.342;2022-12-18T07:42:51;-3.60;99.90
17348;DHT22;8791;50.876;4.342;2022-12-18T07:45:18;-3.60;99.90
17348;DHT22;8791;50.876;4.342;2022-12-18T07:47:45;-3.50;99.90
17348;DHT22;8791;50.876;4.342;2022-12-18T07:50:11;-3.50;99.90
17348;DHT22;8791;50.876;4.342;2022-12-18T07:52:38;-3.50;99.90
17348;DHT22;8791;50.876;4.342;2022-12-18T07:55:06;-3.50;99.90
17348;DHT22;8791;50.876;4.342;2022-12-18T07:57:32;-3.50;99.90
17348;DHT22;8791;50.876;4.342;2022-12-18T08:00:01;-3.40;99.90
17348;DHT22;8791;50.876;4.342;2022-12-18T08:02:30;-3.50;99.90
17348;DHT22;8791;50.876;4.342;2022-12-18T08:04:57;-3.30;99.90
17348;DHT22;8791;50.876;4.342;2022-12-18T08:07:24;-3.50;99.90
17348;DHT22;8791;50.876;4.342;2022-12-18T08:09:51;-3.30;99.90
17348;DHT22;8791;50.876;4.342;2022-12-18T08:12:18;-3.30;99.90
17348;DHT22;8791;50.876;4.342;2022-12-18T08:14:44;-3.20;99.90
17348;DHT22;8791;50.876;4.342;2022-12-18T08:17:13;-3.20;99.90
17348;DHT22;8791;50.876;4.342;2022-12-18T08:19:39;-3.00;99.90
17348;DHT22;8791;50.876;4.342;2022-12-18T08:22:06;-3.20;99.90
17348;DHT22;8791;50.876;4.342;2022-12-18T08:24:33;-3.10;99.90
17348;DHT22;8791;50.876;4.342;2022-12-18T08:27:00;-3.10;99.90
17348;DHT22;8791;50.876;4.342;2022-12-18T08:29:26;-3.00;99.90
17348;DHT22;8791;50.876;4.342;2022-12-18T08:31:53;-3.00;99.90
17348;DHT22;8791;50.876;4.342;2022-12-18T08:34:21;-3.10;99.90
17348;DHT22;8791;50.876;4.342;2022-12-18T08:36:48;-3.00;99.90
17348;DHT22;8791;50.876;4.342;2022-12-18T08:39:15;-2.90;99.90
17348;DHT22;8791;50.876;4.342;2022-12-18T08:41:42;-2.70;99.90
17348;DHT22;8791;50.876;4.342;2022-12-18T08:44:29;-2.60;99.90
17348;DHT22;8791;50.876;4.342;2022-12-18T08:47:03;-2.60;99.90
17348;DHT22;8791;50.876;4.342;2022-12-18T08:49:32;-2.60;99.90
17348;DHT22;8791;50.876;4.342;2022-12-18T08:51:59;-2.50;99.90
17348;DHT22;8791;50.876;4.342;2022-12-18T08:54:26;-2.40;99.90
17348;DHT22;8791;50.876;4.342;2022-12-18T08:56:53;-2.30;99.90
17348;DHT22;8791;50.876;4.342;2022-12-18T08:59:20;-2.30;99.90
17348;DHT22;8791;50.876;4.342;2022-12-18T09:01:47;-1.90;99.90
17348;DHT22;8791;50.876;4.342;2022-12-18T09:04:14;-1.80;99.90
17348;DHT22;8791;50.876;4.342;2022-12-18T09:06:42;-1.80;99.90
17348;DHT22;8791;50.876;4.342;2022-12-18T09:09:09;-1.80;99.90
17348;DHT22;8791;50.876;4.342;2022-12-18T09:11:36;-1.70;99.90
17348;DHT22;8791;50.876;4.342;2022-12-18T09:14:03;-1.60;99.90
17348;DHT22;8791;50.876;4.342;2022-12-18T09:16:31;-1.20;99.90
17348;DHT22;8791;50.876;4.342;2022-12-18T09:19:01;-0.90;99.90
17348;DHT22;8791;50.876;4.342;2022-12-18T09:21:31;-0.70;99.90
17348;DHT22;8791;50.876;4.342;2022-12-18T09:23:59;-0.80;99.90
17348;DHT22;8791;50.876;4.342;2022-12-18T09:26:27;-1.00;99.90
17348;DHT22;8791;50.876;4.342;2022-12-18T09:28:54;-1.00;99.90
17348;DHT22;8791;50.876;4.342;2022-12-18T09:31:22;-1.20;99.90
17348;DHT22;8791;50.876;4.342;2022-12-18T09:33:50;-1.20;99.90
17348;DHT22;8791;50.876;4.342;2022-12-18T09:36:17;-1.20;99.90
17348;DHT22;8791;50.876;4.342;2022-12-18T09:38:44;-1.20;99.90
17348;DHT22;8791;50.876;4.342;2022-12-18T09:41:27;-1.20;99.90
17348;DHT22;8791;50.876;4.342;2022-12-18T09:44:01;-1.20;99.90
17348;DHT22;8791;50.876;4.342;2022-12-18T09:46:31;-1.10;99.90
17348;DHT22;8791;50.876;4.342;2022-12-18T09:49:02;-1.10;99.90
17348;DHT22;8791;50.876;4.342;2022-12-18T09:51:33;-1.10;99.90
17348;DHT22;8791;50.876;4.342;2022-12-18T09:54:04;-1.00;99.90
17348;DHT22;8791;50.876;4.342;2022-12-18T09:56:36;-1.00;99.90
17348;DHT22;8791;50.876;4.342;2022-12-18T09:59:05;-1.00;99.90
17348;DHT22;8791;50.876;4.342;2022-12-18T10:01:33;-0.90;99.90
17348;DHT22;8791;50.876;4.342;2022-12-18T10:04:00;-0.90;99.90
17348;DHT22;8791;50.876;4.342;2022-12-18T10:06:31;-0.80;99.90
17348;DHT22;8791;50.876;4.342;2022-12-18T10:09:05;-0.80;99.90
17348;DHT22;8791;50.876;4.342;2022-12-18T10:11:43;-0.70;99.90
17348;DHT22;8791;50.876;4.342;2022-12-18T10:14:18;-0.60;99.90
17348;DHT22;8791;50.876;4.342;2022-12-18T10:16:56;-0.60;99.90
17348;DHT22;8791;50.876;4.342;2022-12-18T10:19:35;-0.60;99.90
17348;DHT22;8791;50.876;4.342;2022-12-18T10:22:13;-0.50;99.90
17348;DHT22;8791;50.876;4.342;2022-12-18T10:24:52;-0.50;99.90
17348;DHT22;8791;50.876;4.342;2022-12-18T10:27:24;-0.50;99.90
17348;DHT22;8791;50.876;4.342;2022-12-18T10:29:52;-0.30;99.90
17348;DHT22;8791;50.876;4.342;2022-12-18T10:32:21;-0.30;99.90
17348;DHT22;8791;50.876;4.342;2022-12-18T10:34:50;-0.20;99.90
17348;DHT22;8791;50.876;4.342;2022-12-18T10:37:18;-0.20;99.90
17348;DHT22;8791;50.876;4.342;2022-12-18T10:39:45;-0.10;99.90
17348;DHT22;8791;50.876;4.342;2022-12-18T10:42:17;-0.10;99.90
17348;DHT22;8791;50.876;4.342;2022-12-18T10:44:46;0.00;99.90
17348;DHT22;8791;50.876;4.342;2022-12-18T10:47:27;0.00;99.90
17348;DHT22;8791;50.876;4.342;2022-12-18T10:49:54;0.00;99.90
17348;DHT22;8791;50.876;4.342;2022-12-18T10:52:23;0.00;99.90
17348;DHT22;8791;50.876;4.342;2022-12-18T10:54:53;0.10;99.90
17348;DHT22;8791;50.876;4.342;2022-12-18T10:57:34;0.30;99.90
17348;DHT22;8791;50.876;4.342;2022-12-18T11:00:21;0.30;99.90
17348;DHT22;8791;50.876;4.342;2022-12-18T11:02:49;0.50;99.90
17348;DHT22;8791;50.876;4.342;2022-12-18T11:05:29;0.60;99.90
17348;DHT22;8791;50.876;4.342;2022-12-18T11:07:57;0.60;99.90
17348;DHT22;8791;50.876;4.342;2022-12-18T11:10:28;0.60;99.90
17348;DHT22;8791;50.876;4.342;2022-12-18T11:13:10;0.70;99.90
17348;DHT22;8791;50.876;4.342;2022-12-18T11:15:40;0.80;99.90
17348;DHT22;8791;50.876;4.342;2022-12-18T11:18:16;0.90;99.90
17348;DHT22;8791;50.876;4.342;2022-12-18T11:20:50;1.00;99.90
17348;DHT22;8791;50.876;4.342;2022-12-18T11:23:19;1.10;99.90
17348;DHT22;8791;50.876;4.342;2022-12-18T11:25:52;1.20;99.90
17348;DHT22;8791;50.876;4.342;2022-12-18T11:28:29;1.10;99.90
17348;DHT22;8791;50.876;4.342;2022-12-18T11:31:25;1.20;99.90
17348;DHT22;8791;50.876;4.342;2022-12-18T11:34:04;1.10;99.90
17348;DHT22;8791;50.876;4.342;2022-12-18T11:36:35;1.00;99.90
17348;DHT22;8791;50.876;4.342;2022-12-18T11:39:12;1.10;99.90
17348;DHT22;8791;50.876;4.342;2022-12-18T11:41:47;1.20;99.90
17348;DHT22;8791;50.876;4.342;2022-12-18T11:44:37;1.10;99.90
17348;DHT22;8791;50.876;4.342;2022-12-18T11:47:12;1.00;99.90
17348;DHT22;8791;50.876;4.342;2022-12-18T11:49:41;1.10;99.90
17348;DHT22;8791;50.876;4.342;2022-12-18T11:52:15;1.20;99.90
17348;DHT22;8791;50.876;4.342;2022-12-18T11:54:43;1.20;99.90
17348;DHT22;8791;50.876;4.342;2022-12-18T11:57:27;1.60;99.90
17348;DHT22;8791;50.876;4.342;2022-12-18T12:00:04;1.80;99.90
17348;DHT22;8791;50.876;4.342;2022-12-18T12:02:47;1.80;99.90
17348;DHT22;8791;50.876;4.342;2022-12-18T12:05:29;1.80;99.90
17348;DHT22;8791;50.876;4.342;2022-12-18T12:08:03;1.70;99.90
17348;DHT22;8791;50.876;4.342;2022-12-18T12:10:40;1.70;99.90
17348;DHT22;8791;50.876;4.342;2022-12-18T12:13:22;1.50;99.90
17348;DHT22;8791;50.876;4.342;2022-12-18T12:15:58;1.50;99.90
17348;DHT22;8791;50.876;4.342;2022-12-18T12:18:36;1.40;99.90
17348;DHT22;8791;50.876;4.342;2022-12-18T12:21:13;1.50;99.90
17348;DHT22;8791;50.876;4.342;2022-12-18T12:23:49;1.40;99.90
17348;DHT22;8791;50.876;4.342;2022-12-18T12:26:23;1.40;99.90
17348;DHT22;8791;50.876;4.342;2022-12-18T12:29:01;1.80;99.90
17348;DHT22;8791;50.876;4.342;2022-12-18T12:31:43;1.70;99.90
17348;DHT22;8791;50.876;4.342;2022-12-18T12:34:19;2.00;99.90
17348;DHT22;8791;50.876;4.342;2022-12-18T12:36:57;2.20;99.90
17348;DHT22;8791;50.876;4.342;2022-12-18T12:39:30;2.30;99.90
17348;DHT22;8791;50.876;4.342;2022-12-18T12:41:57;2.40;99.90
17348;DHT22;8791;50.876;4.342;2022-12-18T12:44:58;2.10;99.90
17348;DHT22;8791;50.876;4.342;2022-12-18T12:47:30;1.80;99.90
17348;DHT22;8791;50.876;4.342;2022-12-18T12:50:02;1.70;99.90
17348;DHT22;8791;50.876;4.342;2022-12-18T12:52:34;2.00;99.90
17348;DHT22;8791;50.876;4.342;2022-12-18T12:55:04;2.20;99.90
17348;DHT22;8791;50.876;4.342;2022-12-18T12:57:36;2.10;99.90
17348;DHT22;8791;50.876;4.342;2022-12-18T13:00:07;2.20;99.90
17348;DHT22;8791;50.876;4.342;2022-12-18T13:02:39;2.10;99.90
17348;DHT22;8791;50.876;4.342;2022-12-18T13:05:18;2.10;99.90
17348;DHT22;8791;50.876;4.342;2022-12-18T13:07:52;2.10;99.90
17348;DHT22;8791;50.876;4.342;2022-12-18T13:10:27;2.10;99.90
17348;DHT22;8791;50.876;4.342;2022-12-18T13:12:58;1.90;99.90
17348;DHT22;8791;50.876;4.342;2022-12-18T13:15:30;1.80;99.90
17348;DHT22;8791;50.876;4.342;2022-12-18T13:18:11;1.90;99.90
17348;DHT22;8791;50.876;4.342;2022-12-18T13:20:41;2.00;99.90
17348;DHT22;8791;50.876;4.342;2022-12-18T13:23:28;2.10;99.90
17348;DHT22;8791;50.876;4.342;2022-12-18T13:25:57;2.10;99.90
17348;DHT22;8791;50.876;4.342;2022-12-18T13:28:51;2.10;99.90
17348;DHT22;8791;50.876;4.342;2022-12-18T13:34:35;1.60;99.90
17348;DHT22;8791;50.876;4.342;2022-12-18T13:37:43;1.70;99.90
17348;DHT22;8791;50.876;4.342;2022-12-18T13:43:37;1.40;99.90
17348;DHT22;8791;50.876;4.342;2022-12-18T13:46:22;1.40;99.90
17348;DHT22;8791;50.876;4.342;2022-12-18T13:48:52;1.40;99.90
17348;DHT22;8791;50.876;4.342;2022-12-18T13:51:21;1.50;99.90
17348;DHT22;8791;50.876;4.342;2022-12-18T13:53:52;1.60;99.90
17348;DHT22;8791;50.876;4.342;2022-12-18T13:56:23;1.60;99.90
17348;DHT22;8791;50.876;4.342;2022-12-18T13:59:08;1.60;99.90
17348;DHT22;8791;50.876;4.342;2022-12-18T14:01:42;1.70;99.90
17348;DHT22;8791;50.876;4.342;2022-12-18T14:04:11;1.70;99.90
17348;DHT22;8791;50.876;4.342;2022-12-18T14:06:38;1.70;99.90
17348;DHT22;8791;50.876;4.342;2022-12-18T14:09:09;1.70;99.90
17348;DHT22;8791;50.876;4.342;2022-12-18T14:11:37;1.60;99.90
17348;DHT22;8791;50.876;4.342;2022-12-18T14:14:05;1.50;99.90
17348;DHT22;8791;50.876;4.342;2022-12-18T14:16:34;1.40;99.90
17348;DHT22;8791;50.876;4.342;2022-12-18T14:19:01;1.40;99.90
17348;DHT22;8791;50.876;4.342;2022-12-18T14:21:29;1.40;99.90
17348;DHT22;8791;50.876;4.342;2022-12-18T14:24:12;1.50;99.90
17348;DHT22;8791;50.876;4.342;2022-12-18T14:26:43;1.50;99.90
17348;DHT22;8791;50.876;4.342;2022-12-18T14:29:26;1.40;99.90
17348;DHT22;8791;50.876;4.342;2022-12-18T14:32:11;1.50;99.90
17348;DHT22;8791;50.876;4.342;2022-12-18T14:34:39;1.40;99.90
17348;DHT22;8791;50.876;4.342;2022-12-18T14:37:09;1.50;99.90
17348;DHT22;8791;50.876;4.342;2022-12-18T14:39:38;1.40;99.90
17348;DHT22;8791;50.876;4.342;2022-12-18T14:42:05;1.40;99.90
17348;DHT22;8791;50.876;4.342;2022-12-18T14:44:32;1.30;99.90
17348;DHT22;8791;50.876;4.342;2022-12-18T14:46:59;1.50;99.90
17348;DHT22;8791;50.876;4.342;2022-12-18T14:49:29;1.40;99.90
17348;DHT22;8791;50.876;4.342;2022-12-18T14:51:57;1.50;99.90
17348;DHT22;8791;50.876;4.342;2022-12-18T14:54:26;1.50;99.90
17348;DHT22;8791;50.876;4.342;2022-12-18T14:57:00;1.40;99.90
17348;DHT22;8791;50.876;4.342;2022-12-18T14:59:28;1.40;99.90
17348;DHT22;8791;50.876;4.342;2022-12-18T15:02:03;1.60;99.90
17348;DHT22;8791;50.876;4.342;2022-12-18T15:04:38;1.80;99.90
17348;DHT22;8791;50.876;4.342;2022-12-18T15:07:09;1.90;99.90
17348;DHT22;8791;50.876;4.342;2022-12-18T15:09:38;1.70;99.90
17348;DHT22;8791;50.876;4.342;2022-12-18T15:12:24;1.50;99.90
17348;DHT22;8791;50.876;4.342;2022-12-18T15:14:52;1.50;99.90
17348;DHT22;8791;50.876;4.342;2022-12-18T15:17:20;1.60;99.90
17348;DHT22;8791;50.876;4.342;2022-12-18T15:19:50;1.70;99.90
17348;DHT22;8791;50.876;4.342;2022-12-18T15:22:20;1.80;99.90
17348;DHT22;8791;50.876;4.342;2022-12-18T15:24:48;1.80;99.90
17348;DHT22;8791;50.876;4.342;2022-12-18T15:27:25;1.70;99.90
17348;DHT22;8791;50.876;4.342;2022-12-18T15:30:20;1.60;99.90
17348;DHT22;8791;50.876;4.342;2022-12-18T15:32:47;1.70;99.90
17348;DHT22;8791;50.876;4.342;2022-12-18T15:35:17;1.60;99.90
17348;DHT22;8791;50.876;4.342;2022-12-18T15:37:44;1.70;99.90
17348;DHT22;8791;50.876;4.342;2022-12-18T15:40:13;1.70;99.90
17348;DHT22;8791;50.876;4.342;2022-12-18T15:42:42;1.80;99.90
17348;DHT22;8791;50.876;4.342;2022-12-18T15:45:27;1.90;99.90
17348;DHT22;8791;50.876;4.342;2022-12-18T15:47:54;1.90;99.90
17348;DHT22;8791;50.876;4.342;2022-12-18T15:50:21;2.10;99.90
17348;DHT22;8791;50.876;4.342;2022-12-18T15:52:51;2.00;99.90
17348;DHT22;8791;50.876;4.342;2022-12-18T15:55:20;2.10;99.90
17348;DHT22;8791;50.876;4.342;2022-12-18T15:58:08;2.10;99.90
17348;DHT22;8791;50.876;4.342;2022-12-18T16:00:37;2.10;99.90
17348;DHT22;8791;50.876;4.342;2022-12-18T16:03:05;2.00;99.90
17348;DHT22;8791;50.876;4.342;2022-12-18T16:05:32;2.00;99.90
17348;DHT22;8791;50.876;4.342;2022-12-18T16:07:59;2.00;99.90
17348;DHT22;8791;50.876;4.342;2022-12-18T16:10:26;2.10;99.90
17348;DHT22;8791;50.876;4.342;2022-12-18T16:12:53;2.00;99.90
17348;DHT22;8791;50.876;4.342;2022-12-18T16:15:21;2.10;99.90
17348;DHT22;8791;50.876;4.342;2022-12-18T16:17:48;2.10;99.90
17348;DHT22;8791;50.876;4.342;2022-12-18T16:20:16;2.00;99.90